createdAt,value
2022-09-15T00:00:22.468Z,6.43
2022-09-15T00:02:51.051Z,6.50
2022-09-15T00:05:18.845Z,6.65
2022-09-15T00:07:46.971Z,6.63
2022-09-15T00:10:16.591Z,7.70
2022-09-15T00:12:44.908Z,7.40
2022-09-15T00:15:13.712Z,7.63
2022-09-15T00:17:41.689Z,7.03
2022-09-15T00:20:10.636Z,7.30
2022-09-15T00:22:38.404Z,7.45
2022-09-15T00:25:06.431Z,7.65
2022-09-15T00:27:35.617Z,6.63
2022-09-15T00:30:04.650Z,8.02
2022-09-15T00:32:32.881Z,6.72
2022-09-15T00:35:00.590Z,7.10
2022-09-15T00:37:28.201Z,6.35
2022-09-15T00:39:55.934Z,7.30
2022-09-15T00:42:24.043Z,7.50
2022-09-15T00:44:56.229Z,7.15
2022-09-15T00:47:26.810Z,6.55
2022-09-15T00:49:59.341Z,7.03
2022-09-15T00:52:34.570Z,6.55
2022-09-15T00:55:06.913Z,7.47
2022-09-15T00:57:45.487Z,6.70
2022-09-15T01:00:17.912Z,6.28
2022-09-15T01:02:47.102Z,6.80
2022-09-15T01:05:17.098Z,6.30
2022-09-15T01:07:52.072Z,6.60
2022-09-15T01:10:24.811Z,6.78
2022-09-15T01:12:54.829Z,6.30
2022-09-15T01:15:28.659Z,7.07
2022-09-15T01:18:12.988Z,6.55
2022-09-15T01:21:01.500Z,6.60
2022-09-15T01:24:01.707Z,6.55
2022-09-15T01:26:58.094Z,6.35
2022-09-15T01:29:59.298Z,5.93
2022-09-15T01:32:34.739Z,5.75
2022-09-15T01:35:10.389Z,6.68
2022-09-15T01:37:43.933Z,6.57
2022-09-15T01:40:15.209Z,6.40
2022-09-15T01:45:17.974Z,6.45
2022-09-15T01:47:47.827Z,6.38
2022-09-15T01:50:20.186Z,5.93
2022-09-15T01:52:52.388Z,6.60
2022-09-15T01:55:26.954Z,6.20
2022-09-15T01:57:54.495Z,6.65
2022-09-15T02:00:23.436Z,7.38
2022-09-15T02:02:56.250Z,6.15
2022-09-15T02:05:28.437Z,6.93
2022-09-15T02:08:04.559Z,5.97
2022-09-15T02:10:38.880Z,6.57
2022-09-15T02:13:12.508Z,6.53
2022-09-15T02:15:45.368Z,6.13
2022-09-15T02:18:17.055Z,7.00
2022-09-15T02:20:49.999Z,6.60
2022-09-15T02:23:23.745Z,6.80
2022-09-15T02:25:55.972Z,6.82
2022-09-15T02:28:30.320Z,6.78
2022-09-15T02:31:01.088Z,6.65
2022-09-15T02:33:35.203Z,6.28
2022-09-15T02:36:04.977Z,6.25
2022-09-15T02:38:39.031Z,5.97
2022-09-15T02:41:06.825Z,5.65
2022-09-15T02:43:34.460Z,6.20
2022-09-15T02:46:07.029Z,6.22
2022-09-15T02:48:35.125Z,7.32
2022-09-15T02:51:02.715Z,6.45
2022-09-15T02:53:30.763Z,6.18
2022-09-15T02:55:58.955Z,6.13
2022-09-15T02:58:26.482Z,5.63
2022-09-15T03:00:54.259Z,7.00
2022-09-15T03:03:23.332Z,6.80
2022-09-15T03:05:51.018Z,6.97
2022-09-15T03:08:18.938Z,5.70
2022-09-15T03:10:46.509Z,5.97
2022-09-15T03:13:14.055Z,6.18
2022-09-15T03:15:42.667Z,6.32
2022-09-15T03:18:11.115Z,5.93
2022-09-15T03:20:40.160Z,6.30
2022-09-15T03:23:08.649Z,6.75
2022-09-15T03:25:36.785Z,6.22
2022-09-15T03:28:04.375Z,6.60
2022-09-15T03:30:32.236Z,5.90
2022-09-15T03:32:59.795Z,5.70
2022-09-15T03:35:27.341Z,6.43
2022-09-15T03:37:56.822Z,6.47
2022-09-15T03:40:27.044Z,5.90
2022-09-15T03:42:54.814Z,6.30
2022-09-15T03:45:22.509Z,6.90
2022-09-15T03:47:50.125Z,7.25
2022-09-15T03:50:18.025Z,6.88
2022-09-15T03:52:45.918Z,6.43
2022-09-15T03:55:15.284Z,6.90
2022-09-15T03:57:44.495Z,6.50
2022-09-15T04:00:13.534Z,6.85
2022-09-15T04:02:41.298Z,6.82
2022-09-15T04:05:09.947Z,6.88
2022-09-15T04:07:38.262Z,6.80
2022-09-15T04:10:06.635Z,7.40
2022-09-15T04:12:36.547Z,6.97
2022-09-15T04:15:04.910Z,6.93
2022-09-15T04:17:33.252Z,6.32
2022-09-15T04:20:01.011Z,6.63
2022-09-15T04:22:30.789Z,6.32
2022-09-15T04:24:58.408Z,7.45
2022-09-15T04:27:26.156Z,7.32
2022-09-15T04:29:55.601Z,7.18
2022-09-15T04:32:23.386Z,7.60
2022-09-15T04:34:51.038Z,6.95
2022-09-15T04:37:18.687Z,6.50
2022-09-15T04:39:46.400Z,6.15
2022-09-15T04:42:13.993Z,6.70
2022-09-15T04:44:42.153Z,6.25
2022-09-15T04:47:11.253Z,6.05
2022-09-15T04:49:38.792Z,5.80
2022-09-15T04:52:09.718Z,5.68
2022-09-15T04:54:37.993Z,5.28
2022-09-15T04:57:06.055Z,5.47
2022-09-15T04:59:35.113Z,6.10
2022-09-15T05:02:03.210Z,5.93
2022-09-15T05:04:32.799Z,6.35
2022-09-15T05:07:00.637Z,6.18
2022-09-15T05:09:28.414Z,5.82
2022-09-15T05:11:56.115Z,5.90
2022-09-15T05:14:23.938Z,5.78
2022-09-15T05:16:51.864Z,5.30
2022-09-15T05:19:19.466Z,5.60
2022-09-15T05:21:48.622Z,5.63
2022-09-15T05:24:16.236Z,6.15
2022-09-15T05:26:43.796Z,5.43
2022-09-15T05:29:11.577Z,5.95
2022-09-15T05:31:39.493Z,5.97
2022-09-15T05:34:07.799Z,5.53
2022-09-15T05:36:35.751Z,5.07
2022-09-15T05:39:04.731Z,5.07
2022-09-15T05:41:32.476Z,4.97
2022-09-15T05:44:00.198Z,5.30
2022-09-15T05:46:28.713Z,4.82
2022-09-15T05:48:58.585Z,5.30
2022-09-15T05:51:26.406Z,5.22
2022-09-15T05:53:54.010Z,5.05
2022-09-15T05:56:23.264Z,4.90
2022-09-15T05:58:51.173Z,4.97
2022-09-15T06:01:20.699Z,4.60
2022-09-15T06:03:48.589Z,4.32
2022-09-15T06:06:16.715Z,4.75
2022-09-15T06:08:48.115Z,4.47
2022-09-15T06:11:18.056Z,4.78
2022-09-15T06:13:47.798Z,4.47
2022-09-15T06:16:18.562Z,4.80
2022-09-15T06:18:47.417Z,5.20
2022-09-15T06:21:17.950Z,4.75
2022-09-15T06:23:50.045Z,5.00
2022-09-15T06:26:19.263Z,5.03
2022-09-15T06:28:50.730Z,5.07
2022-09-15T06:31:19.686Z,5.40
2022-09-15T06:33:50.962Z,5.07
2022-09-15T06:36:20.070Z,5.25
2022-09-15T06:38:48.369Z,5.63
2022-09-15T06:41:16.695Z,5.57
2022-09-15T06:43:44.871Z,5.75
2022-09-15T06:46:15.505Z,5.47
2022-09-15T06:48:47.563Z,5.25
2022-09-15T06:51:18.068Z,5.85
2022-09-15T06:53:46.628Z,5.38
2022-09-15T06:56:16.167Z,5.40
2022-09-15T06:58:47.249Z,6.32
2022-09-15T07:01:20.876Z,4.60
2022-09-15T07:03:48.936Z,5.28
2022-09-15T07:06:16.616Z,5.28
2022-09-15T07:08:44.635Z,5.50
2022-09-15T07:11:13.583Z,5.32
2022-09-15T07:13:41.629Z,5.07
2022-09-15T07:16:12.052Z,5.10
2022-09-15T07:18:43.444Z,5.20
2022-09-15T07:21:14.534Z,5.20
2022-09-15T07:23:42.912Z,5.53
2022-09-15T07:26:12.531Z,6.03
2022-09-15T07:28:42.696Z,4.97
2022-09-15T07:31:13.371Z,5.45
2022-09-15T07:33:42.770Z,5.10
2022-09-15T07:36:11.057Z,5.53
2022-09-15T07:38:40.289Z,5.30
2022-09-15T07:41:10.194Z,4.95
2022-09-15T07:43:38.085Z,5.40
2022-09-15T07:46:07.481Z,5.15
2022-09-15T07:48:36.853Z,4.90
2022-09-15T07:51:06.110Z,5.18
2022-09-15T07:53:33.791Z,5.50
2022-09-15T07:56:01.494Z,5.47
2022-09-15T07:58:29.455Z,5.05
2022-09-15T08:01:02.674Z,5.10
2022-09-15T08:03:30.466Z,5.40
2022-09-15T08:05:58.854Z,5.43
2022-09-15T08:08:28.803Z,5.10
2022-09-15T08:10:58.093Z,5.25
2022-09-15T08:13:26.720Z,5.00
2022-09-15T08:15:54.406Z,5.28
2022-09-15T08:18:22.092Z,4.80
2022-09-15T08:20:49.684Z,4.95
2022-09-15T08:23:17.433Z,5.53
2022-09-15T08:25:46.384Z,5.07
2022-09-15T08:28:14.156Z,5.53
2022-09-15T08:30:41.953Z,5.55
2022-09-15T08:33:09.722Z,5.05
2022-09-15T08:35:37.726Z,5.70
2022-09-15T08:38:05.383Z,5.32
2022-09-15T08:40:37.666Z,5.65
2022-09-15T08:43:18.967Z,5.38
2022-09-15T08:45:52.843Z,5.40
2022-09-15T08:48:27.728Z,5.03
2022-09-15T08:50:58.107Z,8.23
2022-09-15T08:53:29.739Z,5.82
2022-09-15T08:56:00.353Z,5.70
2022-09-15T08:58:32.284Z,5.53
2022-09-15T09:01:05.321Z,5.43
2022-09-15T09:03:49.340Z,5.43
2022-09-15T09:06:29.447Z,5.40
2022-09-15T09:09:18.526Z,5.88
2022-09-15T09:12:05.226Z,5.30
2022-09-15T09:14:47.079Z,6.30
2022-09-15T09:17:29.120Z,5.80
2022-09-15T09:20:20.611Z,5.70
2022-09-15T09:22:50.959Z,5.75
2022-09-15T09:25:27.704Z,6.45
2022-09-15T09:27:57.042Z,5.32
2022-09-15T09:30:31.170Z,5.75
2022-09-15T09:33:14.603Z,6.00
2022-09-15T09:35:44.715Z,5.82
2022-09-15T09:38:20.291Z,6.38
2022-09-15T09:40:49.846Z,5.53
2022-09-15T09:43:17.798Z,5.35
2022-09-15T09:45:47.094Z,5.90
2022-09-15T09:48:19.096Z,5.82
2022-09-15T09:50:47.355Z,5.95
2022-09-15T09:53:24.165Z,6.00
2022-09-15T09:55:52.385Z,6.15
2022-09-15T09:58:22.221Z,7.18
2022-09-15T10:00:51.919Z,5.38
2022-09-15T10:03:21.418Z,5.70
2022-09-15T10:06:03.625Z,5.60
2022-09-15T10:08:31.844Z,6.15
2022-09-15T10:11:04.235Z,6.90
2022-09-15T10:13:34.533Z,6.63
2022-09-15T10:16:06.838Z,6.63
2022-09-15T10:18:36.888Z,6.47
2022-09-15T10:21:08.457Z,5.93
2022-09-15T10:23:36.533Z,6.53
2022-09-15T10:26:22.603Z,6.38
2022-09-15T10:29:15.406Z,5.70
2022-09-15T10:31:45.935Z,6.38
2022-09-15T10:34:30.396Z,6.90
2022-09-15T10:37:08.330Z,6.03
2022-09-15T10:39:51.574Z,5.65
2022-09-15T10:42:49.162Z,6.00
2022-09-15T10:45:24.749Z,6.07
2022-09-15T10:48:20.100Z,6.32
2022-09-15T10:51:03.758Z,6.03
2022-09-15T10:53:58.058Z,6.28
2022-09-15T10:56:30.543Z,5.88
2022-09-15T10:59:20.632Z,6.55
2022-09-15T11:02:03.147Z,5.90
2022-09-15T11:04:44.787Z,5.95
2022-09-15T11:07:19.809Z,6.07
2022-09-15T11:09:54.277Z,5.88
2022-09-15T11:12:31.423Z,5.80
2022-09-15T11:15:17.026Z,5.72
2022-09-15T11:17:58.917Z,6.25
2022-09-15T11:21:01.910Z,6.28
2022-09-15T11:23:34.644Z,5.47
2022-09-15T11:26:09.089Z,5.40
2022-09-15T11:28:42.959Z,5.22
2022-09-15T11:31:17.115Z,6.28
2022-09-15T11:33:48.940Z,5.95
2022-09-15T11:36:23.094Z,5.97
2022-09-15T11:38:56.721Z,6.22
2022-09-15T11:41:28.623Z,6.32
2022-09-15T11:44:07.125Z,7.07
2022-09-15T11:46:50.938Z,5.88
2022-09-15T11:49:23.356Z,6.30
2022-09-15T11:51:59.008Z,5.93
2022-09-15T11:54:34.451Z,5.80
2022-09-15T11:57:02.424Z,5.97
2022-09-15T11:59:38.871Z,5.15
2022-09-15T12:02:17.078Z,5.55
2022-09-15T12:05:02.058Z,5.63
2022-09-15T12:07:36.194Z,5.68
2022-09-15T12:10:15.164Z,5.25
2022-09-15T12:12:44.629Z,5.53
2022-09-15T12:15:17.958Z,5.72
2022-09-15T12:17:52.132Z,5.50
2022-09-15T12:20:25.185Z,6.38
2022-09-15T12:23:02.561Z,5.15
2022-09-15T12:25:40.002Z,5.30
2022-09-15T12:28:37.055Z,5.45
2022-09-15T12:31:13.655Z,6.63
2022-09-15T12:33:45.786Z,5.32
2022-09-15T12:36:41.107Z,5.75
2022-09-15T12:39:29.886Z,6.10
2022-09-15T12:42:07.710Z,6.38
2022-09-15T12:44:37.161Z,5.43
2022-09-15T12:47:17.370Z,5.55
2022-09-15T12:49:48.360Z,5.78
2022-09-15T12:52:16.861Z,7.00
2022-09-15T12:54:53.561Z,7.07
2022-09-15T12:57:26.581Z,6.68
2022-09-15T13:00:33.802Z,6.63
2022-09-15T13:03:02.204Z,6.30
2022-09-15T13:06:06.709Z,6.30
2022-09-15T13:09:21.609Z,8.05
2022-09-15T13:11:53.949Z,6.60
2022-09-15T13:14:27.489Z,8.60
2022-09-15T13:17:01.151Z,6.57
2022-09-15T13:19:37.755Z,5.85
2022-09-15T13:22:16.919Z,6.07
2022-09-15T13:24:48.602Z,5.75
2022-09-15T13:27:21.646Z,6.43
2022-09-15T13:29:57.933Z,5.53
2022-09-15T13:32:35.987Z,5.45
2022-09-15T13:35:32.305Z,6.18
2022-09-15T13:38:38.198Z,6.00
2022-09-15T13:41:40.740Z,5.35
2022-09-15T13:44:37.971Z,5.50
2022-09-15T13:47:35.102Z,6.88
2022-09-15T13:50:14.450Z,6.47
2022-09-15T13:53:12.348Z,5.97
2022-09-15T13:55:43.362Z,5.85
2022-09-15T14:01:05.834Z,5.28
2022-09-15T14:03:42.031Z,6.40
2022-09-15T14:06:13.616Z,6.78
2022-09-15T14:08:44.086Z,6.60
2022-09-15T14:13:46.318Z,6.60
2022-09-15T14:16:30.555Z,6.70
2022-09-15T14:19:00.753Z,6.95
2022-09-15T14:21:30.890Z,8.02
2022-09-15T14:24:02.795Z,7.57
2022-09-15T14:26:33.828Z,7.97
2022-09-15T14:29:03.659Z,7.03
2022-09-15T14:31:34.537Z,7.63
2022-09-15T14:34:06.458Z,7.25
2022-09-15T14:36:34.941Z,7.65
2022-09-15T14:39:18.515Z,8.23
2022-09-15T14:41:47.380Z,8.73
2022-09-15T14:47:17.828Z,9.60
2022-09-15T14:49:47.501Z,9.95
2022-09-15T14:52:24.503Z,9.60
2022-09-15T14:54:57.773Z,9.20
2022-09-15T14:57:31.111Z,9.07
2022-09-15T15:00:06.814Z,8.75
2022-09-15T15:02:48.723Z,8.45
2022-09-15T15:05:22.359Z,9.52
2022-09-15T15:07:51.949Z,8.68
2022-09-15T15:10:26.079Z,8.45
2022-09-15T15:12:59.146Z,8.20
2022-09-15T15:15:28.398Z,9.43
2022-09-15T15:17:57.501Z,8.13
2022-09-15T15:20:28.352Z,8.73
2022-09-15T15:23:14.975Z,7.82
2022-09-15T15:25:43.746Z,9.38
2022-09-15T15:28:30.614Z,9.52
2022-09-15T15:31:15.759Z,11.00
2022-09-15T15:33:48.526Z,11.25
2022-09-15T15:36:22.015Z,9.63
2022-09-15T15:38:52.935Z,10.40
2022-09-15T15:41:23.253Z,10.60
2022-09-15T15:44:02.509Z,10.63
2022-09-15T15:46:47.748Z,8.48
2022-09-15T15:49:15.826Z,12.20
2022-09-15T15:51:44.951Z,12.18
2022-09-15T15:54:13.531Z,10.98
2022-09-15T15:56:41.236Z,13.07
2022-09-15T15:59:11.783Z,12.77
2022-09-15T16:01:40.034Z,12.88
2022-09-15T16:04:07.795Z,11.70
2022-09-15T16:06:36.217Z,12.95
2022-09-15T16:09:05.747Z,12.70
2022-09-15T16:11:34.711Z,13.18
2022-09-15T16:14:02.374Z,14.02
2022-09-15T16:16:31.624Z,13.07
2022-09-15T16:18:59.520Z,13.57
2022-09-15T16:21:32.360Z,14.43
2022-09-15T16:24:00.558Z,16.02
2022-09-15T16:26:29.631Z,20.25
2022-09-15T16:28:58.050Z,19.60
2022-09-15T16:31:25.735Z,20.17
2022-09-15T16:33:53.405Z,28.33
2022-09-15T16:36:21.222Z,21.40
2022-09-15T16:38:49.707Z,24.98
2022-09-15T16:41:18.908Z,26.85
2022-09-15T16:43:48.253Z,33.22
2022-09-15T16:46:16.399Z,28.95
2022-09-15T16:48:44.396Z,25.08
2022-09-15T16:51:28.001Z,21.90
2022-09-15T16:53:57.483Z,31.30
2022-09-15T16:56:25.767Z,27.15
2022-09-15T16:58:59.831Z,22.35
2022-09-15T17:01:28.721Z,19.90
2022-09-15T17:03:57.074Z,17.10
2022-09-15T17:06:24.980Z,13.75
2022-09-15T17:08:54.851Z,14.30
2022-09-15T17:11:23.190Z,16.65
2022-09-15T17:13:51.336Z,22.58
2022-09-15T17:16:20.720Z,16.30
2022-09-15T17:18:49.586Z,16.27
2022-09-15T17:21:18.187Z,16.83
2022-09-15T17:23:48.446Z,16.52
2022-09-15T17:26:19.690Z,15.68
2022-09-15T17:28:48.363Z,18.73
2022-09-15T17:31:18.277Z,18.50
2022-09-15T17:33:49.249Z,32.58
2022-09-15T17:36:17.709Z,19.08
2022-09-15T17:38:45.488Z,19.73
2022-09-15T17:41:14.879Z,22.15
2022-09-15T17:43:42.893Z,25.13
2022-09-15T17:46:11.260Z,21.45
2022-09-15T17:48:39.715Z,18.30
2022-09-15T17:51:13.107Z,18.77
2022-09-15T17:53:41.601Z,18.33
2022-09-15T17:56:09.273Z,18.88
2022-09-15T17:58:37.100Z,18.40
2022-09-15T18:01:05.043Z,17.38
2022-09-15T18:03:34.182Z,14.55
2022-09-15T18:06:03.839Z,16.02
2022-09-15T18:08:33.701Z,15.23
2022-09-15T18:11:01.987Z,17.00
2022-09-15T20:22:54.050Z,12.60
2022-09-15T20:25:23.231Z,12.20
2022-09-15T20:27:51.527Z,11.15
2022-09-15T20:30:20.042Z,10.70
2022-09-15T20:32:47.769Z,10.38
2022-09-15T20:35:16.341Z,10.32
2022-09-15T20:37:44.807Z,9.23
2022-09-15T20:40:15.486Z,9.23
2022-09-15T20:42:43.797Z,8.85
2022-09-15T20:45:12.623Z,8.50
2022-09-15T20:47:42.242Z,7.50
2022-09-15T20:50:10.610Z,8.10
2022-09-15T20:52:38.989Z,8.00
2022-09-15T20:55:07.711Z,9.45
2022-09-15T20:57:37.574Z,8.70
2022-09-15T21:00:06.888Z,8.40
2022-09-15T21:02:36.648Z,7.97
2022-09-15T21:05:05.431Z,8.30
2022-09-15T21:07:33.882Z,7.45
2022-09-15T21:10:01.928Z,8.00
2022-09-15T21:12:29.914Z,7.88
2022-09-15T21:14:59.349Z,8.00
2022-09-15T21:17:27.221Z,7.90
2022-09-15T21:19:55.276Z,8.57
2022-09-15T21:22:23.352Z,8.57
2022-09-15T21:24:50.995Z,7.70
2022-09-15T21:27:18.639Z,7.68
2022-09-15T21:29:46.642Z,7.28
2022-09-15T21:32:15.728Z,7.95
2022-09-15T21:34:43.858Z,7.57
2022-09-15T21:37:11.680Z,7.13
2022-09-15T21:39:40.123Z,7.70
2022-09-15T21:42:07.943Z,7.63
2022-09-15T21:44:35.775Z,7.90
2022-09-15T21:47:03.708Z,7.65
2022-09-15T21:49:32.888Z,8.00
2022-09-15T21:52:00.909Z,7.82
2022-09-15T21:54:28.536Z,7.80
2022-09-15T21:56:56.150Z,9.18
2022-09-15T21:59:24.176Z,8.45
2022-09-15T22:01:51.910Z,8.07
2022-09-15T22:04:19.654Z,8.68
2022-09-15T22:06:49.001Z,8.90
2022-09-15T22:09:18.708Z,8.77
2022-09-15T22:11:47.061Z,8.02
2022-09-15T22:14:16.097Z,8.05
2022-09-15T22:16:44.167Z,8.30
2022-09-15T22:19:12.846Z,8.75
2022-09-15T22:21:41.358Z,8.90
2022-09-15T22:24:12.673Z,8.32
2022-09-15T22:26:42.084Z,7.53
2022-09-15T22:29:10.419Z,7.20
2022-09-15T22:31:38.525Z,7.20
2022-09-15T22:34:06.424Z,8.02
2022-09-15T22:36:34.725Z,7.60
2022-09-15T22:39:03.442Z,7.15
2022-09-15T22:41:34.096Z,7.32
2022-09-15T22:44:02.554Z,6.80
2022-09-15T22:46:30.662Z,8.02
2022-09-15T22:48:58.518Z,8.38
2022-09-15T22:51:26.243Z,7.40
2022-09-15T22:53:54.534Z,7.53
2022-09-15T22:56:22.670Z,8.10
2022-09-15T22:58:52.247Z,7.28
2022-09-15T23:01:22.248Z,7.45
2022-09-15T23:03:50.709Z,6.97
2022-09-15T23:06:18.483Z,7.35
2022-09-15T23:08:50.618Z,6.88
2022-09-15T23:11:18.921Z,6.90
2022-09-15T23:13:47.790Z,6.63
2022-09-15T23:16:17.602Z,6.57
2022-09-15T23:18:46.739Z,6.85
2022-09-15T23:21:15.023Z,7.68
2022-09-15T23:23:44.439Z,7.05
2022-09-15T23:26:13.597Z,6.85
2022-09-15T23:28:41.383Z,6.93
2022-09-15T23:31:11.771Z,6.82
2022-09-15T23:33:40.945Z,6.25
2022-09-15T23:36:11.747Z,6.50
2022-09-15T23:38:41.021Z,6.32
2022-09-15T23:41:09.627Z,6.13
2022-09-15T23:43:37.702Z,6.68
2022-09-15T23:46:06.381Z,5.60
2022-09-15T23:48:34.370Z,5.63
2022-09-15T23:51:07.416Z,5.63
2022-09-15T23:53:35.758Z,5.85
2022-09-15T23:56:04.055Z,5.75
2022-09-15T23:58:31.946Z,5.80
